sensor_id;sensor_type;location;lat;lon;timestamp;pressure;altitude;pressure_sealevel;temperature;humidity
44309;BME280;30022;55.846;37.340;2023-03-13T00:00:48;46944.06;;;-143.51;100.00
44309;BME280;30022;55.846;37.340;2023-03-13T00:03:14;47040.84;;;-143.51;100.00
44309;BME280;30022;55.846;37.340;2023-03-13T00:05:40;46993.44;;;-143.51;100.00
44309;BME280;30022;55.846;37.340;2023-03-13T00:08:05;46987.50;;;-143.51;100.00
44309;BME280;30022;55.846;37.340;2023-03-13T00:10:31;46981.59;;;-143.51;100.00
44309;BME280;30022;55.846;37.340;2023-03-13T00:12:56;47007.25;;;-143.51;100.00
44309;BME280;30022;55.846;37.340;2023-03-13T00:15:22;46993.44;;;-143.51;100.00
44309;BME280;30022;55.846;37.340;2023-03-13T00:17:48;47001.34;;;-143.51;100.00
44309;BME280;30022;55.846;37.340;2023-03-13T00:20:13;46955.91;;;-143.51;100.00
44309;BME280;30022;55.846;37.340;2023-03-13T00:22:41;47001.34;;;-143.51;100.00
44309;BME280;30022;55.846;37.340;2023-03-13T00:25:07;46957.88;;;-143.51;100.00
44309;BME280;30022;55.846;37.340;2023-03-13T00:27:33;46993.44;;;-143.51;100.00
44309;BME280;30022;55.846;37.340;2023-03-13T00:29:59;47009.22;;;-143.51;100.00
44309;BME280;30022;55.846;37.340;2023-03-13T00:32:24;47036.88;;;-143.51;100.00
44309;BME280;30022;55.846;37.340;2023-03-13T00:34:50;47021.09;;;-143.51;100.00
44309;BME280;30022;55.846;37.340;2023-03-13T00:37:16;47048.72;;;-143.51;100.00
44309;BME280;30022;55.846;37.340;2023-03-13T00:39:42;46997.38;;;-143.51;100.00
44309;BME280;30022;55.846;37.340;2023-03-13T00:42:07;46999.34;;;-143.51;100.00
44309;BME280;30022;55.846;37.340;2023-03-13T00:44:33;47040.84;;;-143.51;100.00
44309;BME280;30022;55.846;37.340;2023-03-13T00:46:58;46971.72;;;-143.51;100.00
44309;BME280;30022;55.846;37.340;2023-03-13T00:49:24;47009.22;;;-143.51;100.00
44309;BME280;30022;55.846;37.340;2023-03-13T00:51:50;47007.25;;;-143.51;100.00
44309;BME280;30022;55.846;37.340;2023-03-13T00:54:16;46946.03;;;-143.51;100.00
44309;BME280;30022;55.846;37.340;2023-03-13T00:56:41;47011.22;;;-143.51;100.00
44309;BME280;30022;55.846;37.340;2023-03-13T00:59:07;46953.94;;;-143.51;100.00
44309;BME280;30022;55.846;37.340;2023-03-13T01:01:34;46932.22;;;-143.51;100.00
44309;BME280;30022;55.846;37.340;2023-03-13T01:04:01;46948.00;;;-143.51;100.00
44309;BME280;30022;55.846;37.340;2023-03-13T01:06:29;46910.47;;;-143.51;100.00
44309;BME280;30022;55.846;37.340;2023-03-13T01:08:56;46880.84;;;-143.51;100.00
44309;BME280;30022;55.846;37.340;2023-03-13T01:11:24;46906.53;;;-143.51;100.00
44309;BME280;30022;55.846;37.340;2023-03-13T01:13:54;46904.56;;;-143.51;100.00
44309;BME280;30022;55.846;37.340;2023-03-13T01:16:21;46894.69;;;-143.51;100.00
44309;BME280;30022;55.846;37.340;2023-03-13T01:18:47;46910.47;;;-143.51;100.00
44309;BME280;30022;55.846;37.340;2023-03-13T01:21:13;46951.97;;;-143.51;100.00
44309;BME280;30022;55.846;37.340;2023-03-13T01:23:40;46946.03;;;-143.51;100.00
44309;BME280;30022;55.846;37.340;2023-03-13T01:26:06;46997.38;;;-143.51;100.00
44309;BME280;30022;55.846;37.340;2023-03-13T01:28:32;46999.34;;;-143.51;100.00
44309;BME280;30022;55.846;37.340;2023-03-13T01:30:58;46953.94;;;-143.51;100.00
44309;BME280;30022;55.846;37.340;2023-03-13T01:33:24;46959.84;;;-143.51;100.00
44309;BME280;30022;55.846;37.340;2023-03-13T01:35:50;46949.97;;;-143.51;100.00
44309;BME280;30022;55.846;37.340;2023-03-13T01:38:15;46934.19;;;-143.51;100.00
44309;BME280;30022;55.846;37.340;2023-03-13T01:40:42;46942.09;;;-143.51;100.00
44309;BME280;30022;55.846;37.340;2023-03-13T01:43:15;46894.69;;;-143.51;100.00
44309;BME280;30022;55.846;37.340;2023-03-13T01:50:56;46849.25;;;-143.51;100.00
44309;BME280;30022;55.846;37.340;2023-03-13T01:53:26;46863.09;;;-143.51;100.00
44309;BME280;30022;55.846;37.340;2023-03-13T01:55:53;46845.31;;;-143.51;100.00
44309;BME280;30022;55.846;37.340;2023-03-13T01:58:20;46865.06;;;-143.51;100.00
44309;BME280;30022;55.846;37.340;2023-03-13T02:00:45;46855.19;;;-143.51;100.00
44309;BME280;30022;55.846;37.340;2023-03-13T02:03:13;46865.06;;;-143.51;100.00
44309;BME280;30022;55.846;37.340;2023-03-13T02:05:39;46874.94;;;-143.51;100.00
44309;BME280;30022;55.846;37.340;2023-03-13T02:08:11;46855.19;;;-143.51;100.00
44309;BME280;30022;55.846;37.340;2023-03-13T02:10:38;46855.19;;;-143.51;100.00
44309;BME280;30022;55.846;37.340;2023-03-13T02:13:06;46843.34;;;-143.51;100.00
44309;BME280;30022;55.846;37.340;2023-03-13T02:15:31;46863.09;;;-143.51;100.00
44309;BME280;30022;55.846;37.340;2023-03-13T02:17:58;46815.69;;;-143.51;100.00
44309;BME280;30022;55.846;37.340;2023-03-13T02:20:25;46851.22;;;-143.51;100.00
44309;BME280;30022;55.846;37.340;2023-03-13T02:22:59;46851.22;;;-143.51;100.00
44309;BME280;30022;55.846;37.340;2023-03-13T02:25:46;46825.56;;;-143.51;100.00
44309;BME280;30022;55.846;37.340;2023-03-13T02:28:18;46859.13;;;-143.51;100.00
44309;BME280;30022;55.846;37.340;2023-03-13T02:30:46;46827.53;;;-143.51;100.00
44309;BME280;30022;55.846;37.340;2023-03-13T02:33:12;46843.34;;;-143.51;100.00
44309;BME280;30022;55.846;37.340;2023-03-13T02:35:39;46851.22;;;-143.51;100.00
44309;BME280;30022;55.846;37.340;2023-03-13T02:38:09;46825.56;;;-143.51;100.00
44309;BME280;30022;55.846;37.340;2023-03-13T02:40:36;46839.38;;;-143.51;100.00
44309;BME280;30022;55.846;37.340;2023-03-13T02:43:06;46809.75;;;-143.51;100.00
44309;BME280;30022;55.846;37.340;2023-03-13T02:45:32;46809.75;;;-143.51;100.00
44309;BME280;30022;55.846;37.340;2023-03-13T02:47:58;46845.31;;;-143.51;100.00
44309;BME280;30022;55.846;37.340;2023-03-13T02:50:23;46801.84;;;-143.51;100.00
44309;BME280;30022;55.846;37.340;2023-03-13T02:52:52;46819.63;;;-143.51;100.00
44309;BME280;30022;55.846;37.340;2023-03-13T02:55:23;46835.44;;;-143.51;100.00
44309;BME280;30022;55.846;37.340;2023-03-13T02:57:51;46788.03;;;-143.51;100.00
44309;BME280;30022;55.846;37.340;2023-03-13T03:00:16;46809.75;;;-143.51;100.00
44309;BME280;30022;55.846;37.340;2023-03-13T03:02:43;46811.72;;;-143.51;100.00
44309;BME280;30022;55.846;37.340;2023-03-13T03:05:09;46851.22;;;-143.51;100.00
44309;BME280;30022;55.846;37.340;2023-03-13T03:07:35;46795.94;;;-143.51;100.00
44309;BME280;30022;55.846;37.340;2023-03-13T03:10:01;46859.13;;;-143.51;100.00
44309;BME280;30022;55.846;37.340;2023-03-13T03:12:28;46805.81;;;-143.51;100.00
44309;BME280;30022;55.846;37.340;2023-03-13T03:14:54;46807.78;;;-143.51;100.00
44309;BME280;30022;55.846;37.340;2023-03-13T03:17:20;46809.75;;;-143.51;100.00
44309;BME280;30022;55.846;37.340;2023-03-13T03:19:46;46784.09;;;-143.51;100.00
44309;BME280;30022;55.846;37.340;2023-03-13T03:22:11;46780.13;;;-143.51;100.00
44309;BME280;30022;55.846;37.340;2023-03-13T03:24:37;46786.06;;;-143.51;100.00
44309;BME280;30022;55.846;37.340;2023-03-13T03:27:03;46782.09;;;-143.51;100.00
44309;BME280;30022;55.846;37.340;2023-03-13T03:29:35;46807.78;;;-143.51;100.00
44309;BME280;30022;55.846;37.340;2023-03-13T03:32:01;46776.19;;;-143.51;100.00
44309;BME280;30022;55.846;37.340;2023-03-13T03:34:27;46770.25;;;-143.51;100.00
44309;BME280;30022;55.846;37.340;2023-03-13T03:36:54;46807.78;;;-143.51;100.00
44309;BME280;30022;55.846;37.340;2023-03-13T03:39:20;46760.38;;;-143.51;100.00
44309;BME280;30022;55.846;37.340;2023-03-13T03:41:46;46762.34;;;-143.51;100.00
44309;BME280;30022;55.846;37.340;2023-03-13T03:44:12;46748.53;;;-143.51;100.00
44309;BME280;30022;55.846;37.340;2023-03-13T03:46:51;46764.34;;;-143.51;100.00
44309;BME280;30022;55.846;37.340;2023-03-13T03:49:17;46774.22;;;-143.51;100.00
44309;BME280;30022;55.846;37.340;2023-03-13T03:51:43;46772.22;;;-143.51;100.00
44309;BME280;30022;55.846;37.340;2023-03-13T03:54:09;46766.31;;;-143.51;100.00
44309;BME280;30022;55.846;37.340;2023-03-13T03:56:35;46758.41;;;-143.51;100.00
44309;BME280;30022;55.846;37.340;2023-03-13T03:59:01;46766.31;;;-143.51;100.00
44309;BME280;30022;55.846;37.340;2023-03-13T04:01:46;46776.19;;;-143.51;100.00
44309;BME280;30022;55.846;37.340;2023-03-13T04:04:16;46756.44;;;-143.51;100.00
44309;BME280;30022;55.846;37.340;2023-03-13T04:06:45;46778.16;;;-143.51;100.00
44309;BME280;30022;55.846;37.340;2023-03-13T04:09:10;46786.06;;;-143.51;100.00
44309;BME280;30022;55.846;37.340;2023-03-13T04:11:37;46776.19;;;-143.51;100.00
44309;BME280;30022;55.846;37.340;2023-03-13T04:14:04;46764.34;;;-143.51;100.00
44309;BME280;30022;55.846;37.340;2023-03-13T04:16:31;46756.44;;;-143.51;100.00
44309;BME280;30022;55.846;37.340;2023-03-13T04:18:56;46742.59;;;-143.51;100.00
44309;BME280;30022;55.846;37.340;2023-03-13T04:21:24;46750.50;;;-143.51;100.00
44309;BME280;30022;55.846;37.340;2023-03-13T04:23:55;46760.38;;;-143.51;100.00
44309;BME280;30022;55.846;37.340;2023-03-13T04:26:21;46750.50;;;-143.51;100.00
44309;BME280;30022;55.846;37.340;2023-03-13T04:28:50;46762.34;;;-143.51;100.00
44309;BME280;30022;55.846;37.340;2023-03-13T04:31:20;46740.63;;;-143.51;100.00
44309;BME280;30022;55.846;37.340;2023-03-13T04:34:11;46762.34;;;-143.51;100.00
44309;BME280;30022;55.846;37.340;2023-03-13T04:36:57;46762.34;;;-143.51;100.00
44309;BME280;30022;55.846;37.340;2023-03-13T04:39:55;46784.09;;;-143.51;100.00
44309;BME280;30022;55.846;37.340;2023-03-13T04:42:48;46782.09;;;-143.51;100.00
44309;BME280;30022;55.846;37.340;2023-03-13T04:45:33;46766.31;;;-143.51;100.00
44309;BME280;30022;55.846;37.340;2023-03-13T04:48:13;46754.47;;;-143.51;100.00
44309;BME280;30022;55.846;37.340;2023-03-13T04:50:46;46746.56;;;-143.51;100.00
44309;BME280;30022;55.846;37.340;2023-03-13T04:53:26;46768.28;;;-143.51;100.00
44309;BME280;30022;55.846;37.340;2023-03-13T04:55:58;46786.06;;;-143.51;100.00
44309;BME280;30022;55.846;37.340;2023-03-13T04:58:26;46758.41;;;-143.51;100.00
44309;BME280;30022;55.846;37.340;2023-03-13T05:01:18;46764.34;;;-143.51;100.00
44309;BME280;30022;55.846;37.340;2023-03-13T05:03:58;46786.06;;;-143.51;100.00
44309;BME280;30022;55.846;37.340;2023-03-13T05:06:36;46784.09;;;-143.51;100.00
44309;BME280;30022;55.846;37.340;2023-03-13T05:09:04;46784.09;;;-143.51;100.00
44309;BME280;30022;55.846;37.340;2023-03-13T05:12:05;46762.34;;;-143.51;100.00
44309;BME280;30022;55.846;37.340;2023-03-13T05:14:54;46791.97;;;-143.51;100.00
44309;BME280;30022;55.846;37.340;2023-03-13T05:17:43;46795.94;;;-143.51;100.00
44309;BME280;30022;55.846;37.340;2023-03-13T05:20:44;46793.97;;;-143.51;100.00
44309;BME280;30022;55.846;37.340;2023-03-13T05:23:21;46805.81;;;-143.51;100.00
44309;BME280;30022;55.846;37.340;2023-03-13T05:26:01;46788.03;;;-143.51;100.00
44309;BME280;30022;55.846;37.340;2023-03-13T05:28:54;46819.63;;;-143.51;100.00
44309;BME280;30022;55.846;37.340;2023-03-13T05:31:46;46809.75;;;-143.51;100.00
44309;BME280;30022;55.846;37.340;2023-03-13T05:34:41;46841.34;;;-143.51;100.00
44309;BME280;30022;55.846;37.340;2023-03-13T05:37:21;46847.28;;;-143.51;100.00
44309;BME280;30022;55.846;37.340;2023-03-13T05:39:57;46855.19;;;-143.51;100.00
44309;BME280;30022;55.846;37.340;2023-03-13T05:42:49;46859.13;;;-143.51;100.00
44309;BME280;30022;55.846;37.340;2023-03-13T05:45:34;46894.69;;;-143.51;100.00
44309;BME280;30022;55.846;37.340;2023-03-13T05:48:21;46892.72;;;-143.51;100.00
44309;BME280;30022;55.846;37.340;2023-03-13T05:51:11;46898.63;;;-143.51;100.00
44309;BME280;30022;55.846;37.340;2023-03-13T05:53:51;46928.25;;;-143.51;100.00
44309;BME280;30022;55.846;37.340;2023-03-13T05:56:46;46938.13;;;-143.51;100.00
44309;BME280;30022;55.846;37.340;2023-03-13T05:59:33;46965.78;;;-143.51;100.00
44309;BME280;30022;55.846;37.340;2023-03-13T06:02:29;46989.47;;;-143.51;100.00
44309;BME280;30022;55.846;37.340;2023-03-13T06:04:55;47038.84;;;-143.51;100.00
44309;BME280;30022;55.846;37.340;2023-03-13T06:07:24;47030.97;;;-143.51;100.00
44309;BME280;30022;55.846;37.340;2023-03-13T06:09:56;47054.66;;;-143.51;100.00
44309;BME280;30022;55.846;37.340;2023-03-13T06:12:22;47066.50;;;-143.51;100.00
44309;BME280;30022;55.846;37.340;2023-03-13T06:14:48;47123.78;;;-143.51;100.00
44309;BME280;30022;55.846;37.340;2023-03-13T06:17:14;47159.34;;;-143.51;100.00
44309;BME280;30022;55.846;37.340;2023-03-13T06:19:39;47149.47;;;-143.51;100.00
44309;BME280;30022;55.846;37.340;2023-03-13T06:22:05;47155.38;;;-143.51;100.00
44309;BME280;30022;55.846;37.340;2023-03-13T06:24:31;47208.72;;;-143.51;100.00
44309;BME280;30022;55.846;37.340;2023-03-13T06:26:56;47254.16;;;-143.51;100.00
44309;BME280;30022;55.846;37.340;2023-03-13T06:29:22;47236.38;;;-143.51;100.00
44309;BME280;30022;55.846;37.340;2023-03-13T06:31:49;47244.25;;;-143.51;100.00
44309;BME280;30022;55.846;37.340;2023-03-13T06:34:15;47196.88;;;-143.51;100.00
44309;BME280;30022;55.846;37.340;2023-03-13T06:36:40;47224.50;;;-143.51;100.00
44309;BME280;30022;55.846;37.340;2023-03-13T06:39:06;47260.06;;;-143.51;100.00
44309;BME280;30022;55.846;37.340;2023-03-13T06:41:32;47281.78;;;-143.51;100.00
44309;BME280;30022;55.846;37.340;2023-03-13T06:43:58;47275.88;;;-143.51;100.00
44309;BME280;30022;55.846;37.340;2023-03-13T06:46:24;47323.28;;;-143.51;100.00
44309;BME280;30022;55.846;37.340;2023-03-13T06:48:50;47416.09;;;-143.51;100.00
44309;BME280;30022;55.846;37.340;2023-03-13T06:51:17;47538.56;;;-143.51;100.00
44309;BME280;30022;55.846;37.340;2023-03-13T06:53:43;47659.06;;;-143.51;100.00
44309;BME280;30022;55.846;37.340;2023-03-13T06:56:09;47825.00;;;-143.51;100.00
44309;BME280;30022;55.846;37.340;2023-03-13T06:58:35;47838.84;;;-143.51;100.00
44309;BME280;30022;55.846;37.340;2023-03-13T07:01:10;47994.91;;;-143.51;100.00
44309;BME280;30022;55.846;37.340;2023-03-13T07:03:37;48162.81;;;-143.51;100.00
44309;BME280;30022;55.846;37.340;2023-03-13T07:06:03;48340.63;;;-143.51;100.00
44309;BME280;30022;55.846;37.340;2023-03-13T07:08:28;48453.25;;;-143.51;100.00
44309;BME280;30022;55.846;37.340;2023-03-13T07:10:57;48480.91;;;-143.51;100.00
44309;BME280;30022;55.846;37.340;2023-03-13T07:13:23;48522.41;;;-143.51;100.00
44309;BME280;30022;55.846;37.340;2023-03-13T07:15:48;48388.03;;;-143.51;100.00
44309;BME280;30022;55.846;37.340;2023-03-13T07:18:14;48372.25;;;-143.51;100.00
44309;BME280;30022;55.846;37.340;2023-03-13T07:20:40;48358.41;;;-143.51;100.00
44309;BME280;30022;55.846;37.340;2023-03-13T07:23:05;48508.56;;;-143.51;100.00
44309;BME280;30022;55.846;37.340;2023-03-13T07:25:31;48554.00;;;-143.51;100.00
44309;BME280;30022;55.846;37.340;2023-03-13T07:27:56;48557.97;;;-143.51;100.00
44309;BME280;30022;55.846;37.340;2023-03-13T07:30:22;48480.91;;;-143.51;100.00
44309;BME280;30022;55.846;37.340;2023-03-13T07:32:48;48439.41;;;-143.51;100.00
44309;BME280;30022;55.846;37.340;2023-03-13T07:35:13;48330.75;;;-143.51;100.00
44309;BME280;30022;55.846;37.340;2023-03-13T07:37:39;48271.47;;;-143.51;100.00
44309;BME280;30022;55.846;37.340;2023-03-13T07:40:05;48230.00;;;-143.51;100.00
44309;BME280;30022;55.846;37.340;2023-03-13T07:42:30;48465.09;;;-143.51;100.00
44309;BME280;30022;55.846;37.340;2023-03-13T07:44:56;48522.41;;;-143.51;100.00
44309;BME280;30022;55.846;37.340;2023-03-13T07:47:22;48480.91;;;-143.51;100.00
44309;BME280;30022;55.846;37.340;2023-03-13T07:49:48;48518.44;;;-143.51;100.00
44309;BME280;30022;55.846;37.340;2023-03-13T07:52:13;48474.97;;;-143.51;100.00
44309;BME280;30022;55.846;37.340;2023-03-13T07:54:39;48631.06;;;-143.51;100.00
44309;BME280;30022;55.846;37.340;2023-03-13T07:57:04;48591.56;;;-143.51;100.00
44309;BME280;30022;55.846;37.340;2023-03-13T07:59:30;48429.53;;;-143.51;100.00
44309;BME280;30022;55.846;37.340;2023-03-13T08:01:55;48376.19;;;-143.51;100.00
44309;BME280;30022;55.846;37.340;2023-03-13T08:04:21;48380.16;;;-143.51;100.00
44309;BME280;30022;55.846;37.340;2023-03-13T08:06:47;48386.06;;;-143.51;100.00
44309;BME280;30022;55.846;37.340;2023-03-13T08:09:12;48312.97;;;-143.51;100.00
44309;BME280;30022;55.846;37.340;2023-03-13T08:11:38;48241.84;;;-143.51;100.00
44309;BME280;30022;55.846;37.340;2023-03-13T08:14:08;48277.41;;;-143.51;100.00
44309;BME280;30022;55.846;37.340;2023-03-13T08:16:34;48372.25;;;-143.51;100.00
44309;BME280;30022;55.846;37.340;2023-03-13T08:19:00;48579.69;;;-143.51;100.00
44309;BME280;30022;55.846;37.340;2023-03-13T08:21:28;48453.25;;;-143.51;100.00
44309;BME280;30022;55.846;37.340;2023-03-13T08:23:55;48494.72;;;-143.51;100.00
44309;BME280;30022;55.846;37.340;2023-03-13T08:26:23;48565.88;;;-143.51;100.00
44309;BME280;30022;55.846;37.340;2023-03-13T08:28:55;48674.53;;;-143.51;100.00
44309;BME280;30022;55.846;37.340;2023-03-13T08:31:22;49113.19;;;-143.51;100.00
44309;BME280;30022;55.846;37.340;2023-03-13T08:33:48;49717.94;;;-143.51;100.00
44309;BME280;30022;55.846;37.340;2023-03-13T08:36:18;50186.38;;;-143.51;100.00
44309;BME280;30022;55.846;37.340;2023-03-13T08:38:44;50103.34;;;-143.51;100.00
44309;BME280;30022;55.846;37.340;2023-03-13T08:41:10;49909.66;;;-143.51;100.00
44309;BME280;30022;55.846;37.340;2023-03-13T08:43:36;49500.53;;;-143.51;100.00
44309;BME280;30022;55.846;37.340;2023-03-13T08:46:02;48905.72;;;-143.51;100.00
44309;BME280;30022;55.846;37.340;2023-03-13T08:48:27;48567.84;;;-143.51;100.00
44309;BME280;30022;55.846;37.340;2023-03-13T08:51:03;48897.81;;;-143.51;100.00
44309;BME280;30022;55.846;37.340;2023-03-13T08:53:29;49621.09;;;-143.51;100.00
44309;BME280;30022;55.846;37.340;2023-03-13T08:55:55;49356.28;;;-143.51;100.00
44309;BME280;30022;55.846;37.340;2023-03-13T08:58:21;48923.50;;;-143.51;100.00
44309;BME280;30022;55.846;37.340;2023-03-13T09:00:46;49123.09;;;-143.51;100.00
44309;BME280;30022;55.846;37.340;2023-03-13T09:03:12;49486.69;;;-143.51;100.00
44309;BME280;30022;55.846;37.340;2023-03-13T09:05:37;50324.72;;;-143.51;100.00
44309;BME280;30022;55.846;37.340;2023-03-13T09:08:04;51414.03;;;-143.51;100.00
44309;BME280;30022;55.846;37.340;2023-03-13T09:10:33;51287.50;;;-143.51;100.00
44309;BME280;30022;55.846;37.340;2023-03-13T09:12:59;49925.47;;;-143.51;100.00
44309;BME280;30022;55.846;37.340;2023-03-13T09:15:24;49595.41;;;-143.51;100.00
44309;BME280;30022;55.846;37.340;2023-03-13T09:17:50;49623.06;;;-143.51;100.00
44309;BME280;30022;55.846;37.340;2023-03-13T09:20:16;49729.78;;;-143.51;100.00
44309;BME280;30022;55.846;37.340;2023-03-13T09:22:43;49933.38;;;-143.51;100.00
44309;BME280;30022;55.846;37.340;2023-03-13T09:25:09;50457.16;;;-143.51;100.00
44309;BME280;30022;55.846;37.340;2023-03-13T09:27:35;50459.16;;;-143.51;100.00
44309;BME280;30022;55.846;37.340;2023-03-13T09:30:00;50724.03;;;-143.51;100.00
44309;BME280;30022;55.846;37.340;2023-03-13T09:32:26;50945.47;;;-143.51;100.00
44309;BME280;30022;55.846;37.340;2023-03-13T09:34:51;51060.13;;;-143.51;100.00
44309;BME280;30022;55.846;37.340;2023-03-13T09:37:17;51062.09;;;-143.51;100.00
44309;BME280;30022;55.846;37.340;2023-03-13T09:39:43;50514.50;;;-143.51;100.00
44309;BME280;30022;55.846;37.340;2023-03-13T09:42:15;50735.91;;;-143.51;100.00
44309;BME280;30022;55.846;37.340;2023-03-13T09:44:57;51016.63;;;-143.51;100.00
44309;BME280;30022;55.846;37.340;2023-03-13T09:49:53;50718.09;;;-143.51;100.00
44309;BME280;30022;55.846;37.340;2023-03-13T09:54:48;50395.88;;;-143.51;100.00
44309;BME280;30022;55.846;37.340;2023-03-13T09:57:22;50055.91;;;-143.51;100.00
44309;BME280;30022;55.846;37.340;2023-03-13T09:59:55;50429.50;;;-143.51;100.00
44309;BME280;30022;55.846;37.340;2023-03-13T10:02:29;50759.63;;;-143.51;100.00
44309;BME280;30022;55.846;37.340;2023-03-13T10:04:56;50350.44;;;-143.51;100.00
44309;BME280;30022;55.846;37.340;2023-03-13T10:07:24;49672.47;;;-143.51;100.00
44309;BME280;30022;55.846;37.340;2023-03-13T10:09:49;49178.41;;;-143.51;100.00
44309;BME280;30022;55.846;37.340;2023-03-13T10:12:23;49391.84;;;-143.51;100.00
44309;BME280;30022;55.846;37.340;2023-03-13T10:17:36;50188.34;;;-143.51;100.00
44309;BME280;30022;55.846;37.340;2023-03-13T10:22:47;49097.41;;;-143.51;100.00
44309;BME280;30022;55.846;37.340;2023-03-13T10:27:48;48656.75;;;-143.51;100.00
44309;BME280;30022;55.846;37.340;2023-03-13T10:30:33;48672.56;;;-143.51;100.00
44309;BME280;30022;55.846;37.340;2023-03-13T10:35:38;49605.28;;;-143.51;100.00
44309;BME280;30022;55.846;37.340;2023-03-13T10:38:14;49304.88;;;-143.51;100.00
44309;BME280;30022;55.846;37.340;2023-03-13T10:40:42;49700.16;;;-143.51;100.00
44309;BME280;30022;55.846;37.340;2023-03-13T10:43:16;49966.97;;;-143.51;100.00
44309;BME280;30022;55.846;37.340;2023-03-13T10:45:42;50552.06;;;-143.51;100.00
44309;BME280;30022;55.846;37.340;2023-03-13T10:48:29;50253.56;;;-143.51;100.00
44309;BME280;30022;55.846;37.340;2023-03-13T10:50:55;50235.78;;;-143.51;100.00
44309;BME280;30022;55.846;37.340;2023-03-13T10:56:09;49459.03;;;-143.51;100.00
44309;BME280;30022;55.846;37.340;2023-03-13T11:03:43;48903.75;;;-143.51;100.00
44309;BME280;30022;55.846;37.340;2023-03-13T11:06:31;49296.97;;;-143.51;100.00
44309;BME280;30022;55.846;37.340;2023-03-13T11:11:27;49300.94;;;-143.51;100.00
44309;BME280;30022;55.846;37.340;2023-03-13T11:19:32;49488.69;;;-143.51;100.00
44309;BME280;30022;55.846;37.340;2023-03-13T11:24:31;50059.84;;;-143.51;100.00
44309;BME280;30022;55.846;37.340;2023-03-13T11:27:01;49850.34;;;-143.51;100.00
44309;BME280;30022;55.846;37.340;2023-03-13T11:32:30;49632.94;;;-143.51;100.00
44309;BME280;30022;55.846;37.340;2023-03-13T11:35:03;49640.84;;;-143.51;100.00
44309;BME280;30022;55.846;37.340;2023-03-13T11:37:32;49883.94;;;-143.51;100.00
44309;BME280;30022;55.846;37.340;2023-03-13T11:40:01;49759.44;;;-143.51;100.00
44309;BME280;30022;55.846;37.340;2023-03-13T11:42:36;49739.66;;;-143.51;100.00
44309;BME280;30022;55.846;37.340;2023-03-13T11:50:39;49103.31;;;-143.51;100.00
44309;BME280;30022;55.846;37.340;2023-03-13T11:53:23;49295.00;;;-143.51;100.00
44309;BME280;30022;55.846;37.340;2023-03-13T12:00:48;50306.94;;;-143.51;100.00
44309;BME280;30022;55.846;37.340;2023-03-13T12:03:19;50087.53;;;-143.51;100.00
44309;BME280;30022;55.846;37.340;2023-03-13T12:05:52;50042.06;;;-143.51;100.00
44309;BME280;30022;55.846;37.340;2023-03-13T12:08:26;49553.91;;;-143.51;100.00
44309;BME280;30022;55.846;37.340;2023-03-13T12:13:24;49745.59;;;-143.51;100.00
44309;BME280;30022;55.846;37.340;2023-03-13T12:15:53;49901.75;;;-143.51;100.00
44309;BME280;30022;55.846;37.340;2023-03-13T12:18:26;49455.06;;;-143.51;100.00
44309;BME280;30022;55.846;37.340;2023-03-13T12:29:34;48779.25;;;-143.51;100.00
44309;BME280;30022;55.846;37.340;2023-03-13T12:31:45;48411.75;;;-143.51;100.00
44309;BME280;30022;55.846;37.340;2023-03-13T12:39:16;48779.25;;;-143.51;100.00
44309;BME280;30022;55.846;37.340;2023-03-13T12:41:48;48241.84;;;-143.51;100.00
44309;BME280;30022;55.846;37.340;2023-03-13T12:44:19;48091.69;;;-143.51;100.00
44309;BME280;30022;55.846;37.340;2023-03-13T12:54:56;47781.53;;;-143.51;100.00
44309;BME280;30022;55.846;37.340;2023-03-13T12:59:55;47356.84;;;-143.51;100.00
44309;BME280;30022;55.846;37.340;2023-03-13T13:02:25;47258.09;;;-143.51;100.00
44309;BME280;30022;55.846;37.340;2023-03-13T13:04:52;47400.31;;;-143.51;100.00
44309;BME280;30022;55.846;37.340;2023-03-13T13:07:23;47508.94;;;-143.51;100.00
44309;BME280;30022;55.846;37.340;2023-03-13T13:10:31;47487.22;;;-143.51;100.00
44309;BME280;30022;55.846;37.340;2023-03-13T13:12:41;47431.91;;;-143.51;100.00
44309;BME280;30022;55.846;37.340;2023-03-13T13:17:44;47548.44;;;-143.51;100.00
44309;BME280;30022;55.846;37.340;2023-03-13T13:20:31;47761.78;;;-143.51;100.00
44309;BME280;30022;55.846;37.340;2023-03-13T13:23:17;47913.91;;;-143.51;100.00
44309;BME280;30022;55.846;37.340;2023-03-13T13:25:42;47817.09;;;-143.51;100.00
44309;BME280;30022;55.846;37.340;2023-03-13T13:30:46;47623.50;;;-143.51;100.00
44309;BME280;30022;55.846;37.340;2023-03-13T13:35:44;48052.19;;;-143.51;100.00
44309;BME280;30022;55.846;37.340;2023-03-13T13:43:23;47548.44;;;-143.51;100.00
44309;BME280;30022;55.846;37.340;2023-03-13T13:48:41;47471.41;;;-143.51;100.00
44309;BME280;30022;55.846;37.340;2023-03-13T13:53:41;47275.88;;;-143.51;100.00
44309;BME280;30022;55.846;37.340;2023-03-13T13:56:49;47240.31;;;-143.51;100.00
44309;BME280;30022;55.846;37.340;2023-03-13T13:59:04;47566.22;;;-143.51;100.00
44309;BME280;30022;55.846;37.340;2023-03-13T14:01:35;47665.00;;;-143.51;100.00
44309;BME280;30022;55.846;37.340;2023-03-13T14:04:06;47483.28;;;-143.51;100.00
44309;BME280;30022;55.846;37.340;2023-03-13T14:06:35;47345.00;;;-143.51;100.00
44309;BME280;30022;55.846;37.340;2023-03-13T14:09:19;47356.84;;;-143.51;100.00
44309;BME280;30022;55.846;37.340;2023-03-13T14:11:49;47439.81;;;-143.51;100.00